Snowden, Virginia
Current Conditions -  °F | °C
As of 5:54 PM on Saturday 25 Oct 2014 (Local Time) from KLYH Reporting Station
Clear Clear  
Wind Chill: 66°   Ceiling: Unl
Heat Index: 66°   Visibility: 10mi
Dew Point: 43°   Wind: 5mph
Humidity: 43%   Direction: 220°SW
Pressure: 29.87"   Gusts: NA
Location:  37.5466°N, 79.4046°W
Report Text: KLYH 252154Z 22004KT 10SM CLR 19/06 A2987 RMK AO2 SLP114 T01890061 $
Loading
Personal Weather Stations






























Interactive Weather Map
Tropical Storm Tracking
New forecast layout! Learn more

10-Day Weather Forecast

Advertisements
Track Severe Weather on mobile